Time;durP1;ratioP1;P1;durP2;ratioP2;P2;SDS_P1;SDS_P2;PMS_P1;PMS_P2;Temp;Humidity;BMP_temperature;BMP_pressure;BME280_temperature;BME280_humidity;BME280_pressure;Samples;Min_cycle;Max_cycle;Signal;HPM_P1;HPM_P2
2022/09/06 00:00:23;;;;;;;3.75;3.05;;;;;;;19.11;55.68;93203.00;2054093;70;20162;-75
2022/09/06 00:02:49;;;;;;;5.70;3.60;;;;;;;19.07;55.74;93197.13;2054480;70;20875;-75
2022/09/06 00:05:15;;;;;;;4.45;3.20;;;;;;;19.04;55.30;93196.31;2055439;69;20169;-75
2022/09/06 00:07:41;;;;;;;3.90;3.35;;;;;;;19.05;55.79;93194.91;2056279;69;20248;-73
2022/09/06 00:10:12;;;;;;;6.07;3.20;;;;;;;19.07;55.58;93183.59;2053499;69;20317;-75
2022/09/06 00:12:38;;;;;;;8.90;3.60;;;;;;;18.90;56.48;93187.97;2053551;69;20764;-75
2022/09/06 00:15:05;;;;;;;5.65;3.53;;;;;;;18.94;55.58;93190.97;2053520;69;20157;-76
2022/09/06 00:17:32;;;;;;;5.03;3.50;;;;;;;18.93;56.09;93203.78;2056678;69;20224;-75
2022/09/06 00:20:00;;;;;;;5.47;3.53;;;;;;;19.00;55.25;93196.16;2057048;69;20169;-75
2022/09/06 00:22:28;;;;;;;5.47;3.38;;;;;;;18.62;56.67;93193.28;2057343;69;20556;-75
2022/09/06 00:24:54;;;;;;;5.57;3.17;;;;;;;18.56;57.36;93193.06;2056061;69;20182;-74
2022/09/06 00:27:21;;;;;;;5.28;3.45;;;;;;;18.67;56.93;93194.91;2057155;69;20168;-74
2022/09/06 00:29:47;;;;;;;7.38;3.42;;;;;;;19.02;54.95;93188.41;2056936;69;20173;-74
2022/09/06 00:32:13;;;;;;;4.50;3.10;;;;;;;18.93;55.45;93194.47;2057187;69;20152;-74
2022/09/06 00:34:38;;;;;;;4.47;2.95;;;;;;;18.98;55.20;93191.13;2057004;69;20150;-74
2022/09/06 00:37:04;;;;;;;4.70;3.22;;;;;;;18.91;54.71;93186.56;2057045;69;20161;-74
2022/09/06 00:39:30;;;;;;;6.22;3.35;;;;;;;18.86;55.44;93184.94;2054873;69;20372;-73
2022/09/06 00:41:56;;;;;;;4.75;3.20;;;;;;;18.84;56.14;93179.19;2050567;70;20577;-74
2022/09/06 00:44:21;;;;;;;4.60;3.42;;;;;;;18.73;56.47;93186.59;2051130;69;20158;-74
2022/09/06 00:46:49;;;;;;;4.20;3.50;;;;;;;18.92;54.82;93190.16;2055358;69;20220;-76
2022/09/06 00:49:23;;;;;;;3.75;3.30;;;;;;;18.91;54.83;93182.97;2050659;70;20154;-75
2022/09/06 00:51:56;;;;;;;4.22;3.35;;;;;;;18.85;54.39;93194.91;2050753;70;20157;-76
2022/09/06 00:54:22;;;;;;;5.20;3.38;;;;;;;18.77;55.01;93183.19;2050442;69;20142;-75
2022/09/06 00:56:48;;;;;;;5.10;3.50;;;;;;;18.80;55.06;93193.28;2056101;69;20136;-73
2022/09/06 00:59:15;;;;;;;5.00;3.30;;;;;;;18.73;55.47;93197.28;2057327;69;20615;-74
2022/09/06 01:01:40;;;;;;;5.70;3.42;;;;;;;18.70;55.71;93201.47;2057499;69;20192;-75
2022/09/06 01:04:07;;;;;;;5.05;3.30;;;;;;;18.65;56.83;93199.81;2054869;69;20158;-75
2022/09/06 01:06:43;;;;;;;8.63;3.50;;;;;;;18.59;56.85;93208.09;2056771;69;20260;-74
2022/09/06 01:09:12;;;;;;;4.63;3.40;;;;;;;18.70;55.34;93202.19;2053813;69;20154;-75
2022/09/06 01:11:57;;;;;;;3.83;3.10;;;;;;;18.71;53.72;93203.66;2053505;70;20233;-74
2022/09/06 01:14:47;;;;;;;6.75;3.65;;;;;;;18.57;55.58;93199.47;2050735;69;20692;-73
2022/09/06 01:17:27;;;;;;;4.63;3.28;;;;;;;18.56;55.59;93193.06;2054064;69;20182;-73
2022/09/06 01:20:18;;;;;;;4.15;3.30;;;;;;;18.46;56.16;93196.25;2057205;69;20196;-74
2022/09/06 01:23:03;;;;;;;5.10;3.65;;;;;;;18.35;56.88;93190.78;2056181;69;20181;-74
2022/09/06 01:26:00;;;;;;;5.95;3.63;;;;;;;18.33;58.01;93194.28;2047701;69;20252;-74
2022/09/06 01:28:43;;;;;;;3.80;3.17;;;;;;;18.32;57.61;93201.34;2053402;69;20245;-76
2022/09/06 01:31:37;;;;;;;4.13;3.00;;;;;;;18.27;58.10;93194.75;2057464;69;20584;-74
2022/09/06 01:34:06;;;;;;;4.72;3.58;;;;;;;18.26;57.82;93199.00;2057740;69;20154;-73
2022/09/06 01:36:55;;;;;;;5.43;3.35;;;;;;;18.28;57.91;93199.09;2056877;69;20244;-73
2022/09/06 01:39:29;;;;;;;3.92;3.30;;;;;;;18.24;58.17;93207.47;2056959;69;20256;-74
2022/09/06 01:41:57;;;;;;;3.35;3.03;;;;;;;18.31;57.20;93213.41;2055376;69;20153;-74
2022/09/06 01:44:26;;;;;;;5.57;3.55;;;;;;;18.37;56.97;93211.56;2044492;70;20659;-74
2022/09/06 01:47:01;;;;;;;4.07;3.28;;;;;;;18.33;55.59;93210.66;2052836;70;20570;-75
2022/09/06 01:49:36;;;;;;;4.70;3.50;;;;;;;18.27;56.30;93209.00;2053610;70;20166;-73
2022/09/06 01:52:40;;;;;;;5.10;3.28;;;;;;;18.13;56.74;93204.84;2053462;70;20142;-73
2022/09/06 01:55:25;;;;;;;4.72;3.60;;;;;;;18.37;55.61;93199.41;2047437;70;20621;-73
2022/09/06 01:58:05;;;;;;;9.13;3.47;;;;;;;18.10;56.62;93195.50;2050946;70;20239;-74
2022/09/06 02:00:43;;;;;;;6.50;3.70;;;;;;;18.22;56.69;93196.00;2050662;70;20181;-73
2022/09/06 02:03:21;;;;;;;6.32;3.35;;;;;;;18.01;58.77;93193.72;2053110;70;20162;-73
2022/09/06 02:06:10;;;;;;;6.43;3.45;;;;;;;18.16;56.09;93195.75;2053185;70;20157;-74
2022/09/06 02:08:43;;;;;;;3.58;3.28;;;;;;;18.11;57.79;93194.13;2053366;70;20152;-74
2022/09/06 02:11:09;;;;;;;4.70;3.42;;;;;;;18.16;56.52;93192.16;2052039;70;20506;-73
2022/09/06 02:13:58;;;;;;;4.40;3.22;;;;;;;18.05;57.00;93196.69;2054071;70;20221;-74
2022/09/06 02:16:26;;;;;;;5.03;3.40;;;;;;;17.98;57.34;93192.88;2052543;70;20224;-74
2022/09/06 02:19:02;;;;;;;4.28;3.65;;;;;;;17.94;57.49;93198.41;2050780;70;20142;-74
2022/09/06 02:21:35;;;;;;;3.58;2.97;;;;;;;18.00;57.56;93195.81;2053060;70;20228;-74
2022/09/06 02:24:07;;;;;;;6.82;3.22;;;;;;;17.99;57.95;93197.19;2051382;70;20240;-74
2022/09/06 02:26:36;;;;;;;3.40;3.10;;;;;;;18.09;57.18;93199.72;2052690;70;20166;-74
2022/09/06 02:29:03;;;;;;;6.18;3.20;;;;;;;18.08;56.53;93198.25;2052578;70;20606;-74
2022/09/06 02:31:32;;;;;;;7.00;3.50;;;;;;;18.17;55.89;93199.31;2054201;70;20154;-75
2022/09/06 02:33:59;;;;;;;4.85;3.05;;;;;;;18.16;56.78;93195.75;2053989;70;20165;-75
2022/09/06 02:36:25;;;;;;;4.13;3.30;;;;;;;18.20;56.21;93200.88;2053203;70;20217;-75
2022/09/06 02:38:50;;;;;;;5.78;3.75;;;;;;;17.91;57.84;93196.13;2052664;70;20193;-74
2022/09/06 02:41:21;;;;;;;6.53;3.47;;;;;;;18.06;56.48;93186.06;2050607;70;20271;-74
2022/09/06 02:43:47;;;;;;;4.70;3.72;;;;;;;17.80;58.16;93200.66;2050289;70;20234;-74
2022/09/06 02:46:12;;;;;;;5.93;3.65;;;;;;;18.03;57.74;93203.06;2049836;70;20241;-73
2022/09/06 02:48:38;;;;;;;5.40;3.33;;;;;;;18.07;57.88;93204.63;2050310;70;20256;-74
2022/09/06 02:51:05;;;;;;;5.22;3.90;;;;;;;17.87;59.52;93219.50;2046140;70;20198;-74
2022/09/06 02:53:31;;;;;;;3.92;3.35;;;;;;;17.96;59.15;93217.69;2049442;70;20158;-74
2022/09/06 02:55:57;;;;;;;5.53;3.50;;;;;;;17.97;59.14;93231.31;2049676;70;20193;-73
2022/09/06 02:58:23;;;;;;;6.57;4.00;;;;;;;18.00;58.81;93246.34;2050053;70;20158;-73
2022/09/06 03:00:51;;;;;;;4.45;3.28;;;;;;;18.04;59.09;93270.03;2049356;70;20158;-74
2022/09/06 03:03:20;;;;;;;10.40;4.03;;;;;;;17.00;63.04;93276.84;2047420;70;20551;-73
2022/09/06 03:05:48;;;;;;;6.78;3.95;;;;;;;17.39;61.66;93280.72;2050327;70;20185;-74
2022/09/06 03:08:15;;;;;;;7.20;3.80;;;;;;;17.79;60.00;93278.94;2049806;70;20150;-75
2022/09/06 03:10:48;;;;;;;4.35;3.17;;;;;;;17.72;60.50;93269.38;2048994;70;20598;-75
2022/09/06 03:13:13;;;;;;;5.13;3.33;;;;;;;17.91;59.58;93270.91;2049685;70;20237;-74
2022/09/06 03:15:39;;;;;;;4.18;3.58;;;;;;;18.04;57.09;93275.75;2050252;70;20170;-74
2022/09/06 03:18:04;;;;;;;5.22;3.45;;;;;;;18.01;57.49;93274.22;2049068;70;20146;-73
2022/09/06 03:20:30;;;;;;;5.55;3.47;;;;;;;18.35;57.06;93259.91;2050680;70;20162;-73
2022/09/06 03:22:56;;;;;;;6.32;3.67;;;;;;;18.19;59.28;93268.53;2050101;70;20150;-74
2022/09/06 03:25:21;;;;;;;5.72;3.60;;;;;;;17.40;62.95;93265.81;2050421;70;20186;-74
2022/09/06 03:27:47;;;;;;;5.15;3.70;;;;;;;17.80;62.57;93263.31;2049719;70;20221;-75
2022/09/06 03:30:13;;;;;;;4.22;3.53;;;;;;;18.03;60.53;93256.47;2046082;70;20149;-74
2022/09/06 03:32:39;;;;;;;6.40;3.55;;;;;;;18.19;60.70;93251.44;2050493;70;20139;-73
2022/09/06 03:35:05;;;;;;;5.95;4.10;;;;;;;18.21;61.15;93257.22;2050567;70;20150;-74
2022/09/06 03:37:31;;;;;;;6.57;3.95;;;;;;;17.58;66.51;93254.50;2049490;70;20538;-73
2022/09/06 03:39:57;;;;;;;4.78;3.83;;;;;;;17.86;66.24;93235.09;2049477;70;20571;-74
2022/09/06 03:42:25;;;;;;;6.40;4.07;;;;;;;17.81;66.51;93221.34;2049574;70;20158;-74
2022/09/06 03:44:52;;;;;;;5.40;4.13;;;;;;;17.76;67.83;93220.44;2049672;70;20269;-74
2022/09/06 03:47:19;;;;;;;6.40;4.18;;;;;;;17.58;68.13;93219.63;2048622;70;20153;-75
2022/09/06 03:49:47;;;;;;;7.53;4.43;;;;;;;17.56;68.33;93222.41;2049124;70;20220;-74
2022/09/06 03:52:13;;;;;;;5.53;4.28;;;;;;;17.89;67.02;93216.00;2053495;70;20172;-74
2022/09/06 03:54:39;;;;;;;5.93;3.70;;;;;;;17.98;67.18;93218.53;2050088;70;20166;-74
2022/09/06 03:57:05;;;;;;;8.00;4.13;;;;;;;17.86;66.68;93208.72;2050040;70;20153;-75
2022/09/06 03:59:31;;;;;;;5.60;4.25;;;;;;;17.87;67.43;93219.50;2050482;70;20260;-75
2022/09/06 04:01:57;;;;;;;4.68;3.90;;;;;;;17.67;68.76;93225.00;2052516;69;20146;-74
2022/09/06 04:04:23;;;;;;;4.80;3.58;;;;;;;17.81;67.57;93224.91;2048182;70;20490;-74
2022/09/06 04:06:48;;;;;;;6.88;3.85;;;;;;;17.89;67.62;93227.38;2049985;70;20281;-74
2022/09/06 04:09:14;;;;;;;5.35;3.92;;;;;;;18.00;65.16;93229.25;2051290;70;21799;-74
2022/09/06 04:11:40;;;;;;;5.03;4.03;;;;;;;17.39;69.04;93238.75;2051249;70;20511;-75
2022/09/06 04:14:06;;;;;;;6.28;4.25;;;;;;;17.68;67.15;93234.28;2046613;70;20261;-76
2022/09/06 04:16:31;;;;;;;4.40;4.00;;;;;;;17.92;64.24;93238.22;2050389;70;20539;-73
2022/09/06 04:18:59;;;;;;;9.98;4.40;;;;;;;17.84;66.89;93232.16;2051132;70;20155;-74
2022/09/06 04:21:25;;;;;;;7.10;4.70;;;;;;;17.94;66.63;93246.84;2050377;70;20669;-74
2022/09/06 04:23:51;;;;;;;6.97;4.40;;;;;;;17.93;67.47;93256.75;2050075;70;20498;-74
2022/09/06 04:26:17;;;;;;;6.47;4.40;;;;;;;18.02;67.74;93250.03;2051213;70;20157;-74
2022/09/06 04:28:42;;;;;;;4.40;3.72;;;;;;;18.16;66.08;93249.88;2047909;70;20193;-74
2022/09/06 04:31:08;;;;;;;5.68;3.95;;;;;;;18.09;67.34;93253.84;2048479;70;20604;-74
2022/09/06 04:33:37;;;;;;;5.88;4.10;;;;;;;18.09;68.35;93247.44;2050259;70;20588;-74
2022/09/06 04:36:05;;;;;;;8.20;4.45;;;;;;;18.09;68.13;93253.13;2051250;70;20151;-73
2022/09/06 04:38:37;;;;;;;5.53;4.00;;;;;;;17.94;70.91;93246.84;2050276;70;20223;-74
2022/09/06 04:41:03;;;;;;;4.38;3.75;;;;;;;17.82;72.07;93252.00;2047813;70;20145;-74
2022/09/06 04:43:29;;;;;;;3.78;3.47;;;;;;;18.04;70.42;93267.19;2046185;70;20170;-74
2022/09/06 04:45:54;;;;;;;5.53;3.50;;;;;;;18.04;70.94;93270.03;2050589;70;20307;-75
2022/09/06 04:48:20;;;;;;;4.78;3.80;;;;;;;17.98;71.94;93269.78;2050108;70;20517;-74
2022/09/06 04:50:45;;;;;;;3.65;3.22;;;;;;;18.15;68.88;93259.09;2050047;70;20610;-74
2022/09/06 04:53:11;;;;;;;7.50;3.95;;;;;;;18.12;70.81;93260.38;2050234;70;20218;-74
2022/09/06 04:55:37;;;;;;;6.18;3.90;;;;;;;18.04;71.21;93269.31;2049956;70;20157;-74
2022/09/06 04:58:04;;;;;;;7.00;4.32;;;;;;;18.03;70.35;93268.59;2049802;70;20174;-74
2022/09/06 05:00:32;;;;;;;5.95;3.60;;;;;;;18.10;69.59;93269.59;2049675;70;20154;-74
2022/09/06 05:02:58;;;;;;;6.55;4.07;;;;;;;18.13;69.52;93271.13;2051234;70;20249;-73
2022/09/06 05:05:24;;;;;;;4.85;3.75;;;;;;;18.02;70.66;93272.81;2050172;70;20571;-74
2022/09/06 05:07:53;;;;;;;8.98;4.10;;;;;;;18.04;71.31;93272.88;2046137;70;20134;-74
2022/09/06 05:10:20;;;;;;;5.47;3.65;;;;;;;18.08;69.50;93272.34;2051754;70;20153;-74
2022/09/06 05:12:50;;;;;;;5.78;3.50;;;;;;;18.08;71.19;93277.31;2053082;70;20260;-73
2022/09/06 05:15:17;;;;;;;5.78;3.40;;;;;;;18.16;68.18;93277.66;2050951;70;20742;-74
2022/09/06 05:17:42;;;;;;;4.30;3.80;;;;;;;18.08;69.68;93280.16;2050492;70;20578;-73
2022/09/06 05:20:09;;;;;;;5.22;4.15;;;;;;;18.12;68.91;93294.56;2050078;70;20589;-75
2022/09/06 05:22:35;;;;;;;5.65;4.30;;;;;;;18.10;70.07;93298.06;2052964;70;20156;-73
2022/09/06 05:25:01;;;;;;;6.95;4.80;;;;;;;18.13;68.67;93301.72;2051068;70;20183;-74
2022/09/06 05:27:26;;;;;;;7.00;4.13;;;;;;;18.12;70.26;93303.13;2050342;70;20463;-73
2022/09/06 05:29:52;;;;;;;4.97;4.10;;;;;;;18.15;71.00;93301.84;2051461;70;20188;-73
2022/09/06 05:32:18;;;;;;;7.32;3.60;;;;;;;18.22;70.67;93314.94;2053067;69;20641;-73
2022/09/06 05:34:43;;;;;;;4.78;3.85;;;;;;;18.24;70.13;93317.88;2045028;70;20146;-73
2022/09/06 05:37:09;;;;;;;5.90;3.80;;;;;;;18.34;70.19;93323.28;2050873;70;20165;-73
2022/09/06 05:39:35;;;;;;;7.40;3.83;;;;;;;18.42;68.06;93321.50;2050543;70;20150;-73
2022/09/06 05:42:05;;;;;;;6.30;4.10;;;;;;;18.37;69.44;93317.03;2050427;70;20162;-73
2022/09/06 05:44:34;;;;;;;7.43;4.22;;;;;;;18.18;70.92;93314.75;2051138;69;20201;-73
2022/09/06 05:47:00;;;;;;;5.57;4.60;;;;;;;18.06;71.13;93305.72;2056122;69;20165;-73
2022/09/06 05:49:28;;;;;;;6.68;4.40;;;;;;;18.16;70.80;93309.72;2054600;69;20590;-74
2022/09/06 05:51:54;;;;;;;5.38;4.45;;;;;;;18.16;71.14;93306.16;2054053;69;20241;-73
2022/09/06 05:54:19;;;;;;;6.15;4.47;;;;;;;18.11;69.63;93291.00;2053833;69;21730;-73
2022/09/06 05:56:45;;;;;;;6.90;4.55;;;;;;;18.10;71.26;93289.53;2053856;70;20146;-73
2022/09/06 05:59:11;;;;;;;5.68;4.18;;;;;;;18.25;69.77;93280.19;2055829;69;20264;-74
2022/09/06 06:01:36;;;;;;;5.38;4.25;;;;;;;18.34;69.83;93278.41;2053687;69;20237;-73
2022/09/06 06:04:04;;;;;;;4.57;3.83;;;;;;;18.36;70.01;93280.59;2051937;69;20150;-74
2022/09/06 06:06:33;;;;;;;4.63;3.67;;;;;;;18.42;69.15;93283.72;2050209;69;20301;-73
2022/09/06 06:08:59;;;;;;;3.45;3.15;;;;;;;18.45;68.96;93288.09;2049985;69;20357;-73
2022/09/06 06:11:26;;;;;;;5.35;3.90;;;;;;;18.10;70.86;93297.31;2053153;69;20169;-74
2022/09/06 06:13:52;;;;;;;6.35;4.05;;;;;;;18.35;67.33;93291.28;2057814;69;20238;-74
2022/09/06 06:16:20;;;;;;;5.20;3.80;;;;;;;18.32;68.29;93284.00;2057235;69;20142;-74
2022/09/06 06:18:46;;;;;;;6.65;3.70;;;;;;;18.43;68.61;93290.88;2057343;69;20615;-74
2022/09/06 06:21:23;;;;;;;5.47;3.47;;;;;;;18.24;69.68;93287.28;2055377;69;20221;-74
2022/09/06 06:23:51;;;;;;;8.70;4.22;;;;;;;18.06;70.09;93294.31;2054583;70;20521;-75
2022/09/06 06:26:17;;;;;;;5.13;4.60;;;;;;;18.00;72.21;93292.66;2054216;69;20209;-74
2022/09/06 06:28:44;;;;;;;5.03;4.47;;;;;;;18.10;71.99;93283.84;2055810;69;20173;-76
2022/09/06 06:31:11;;;;;;;6.00;4.28;;;;;;;18.22;71.79;93292.16;2057091;69;20594;-73
2022/09/06 06:33:38;;;;;;;7.30;4.38;;;;;;;18.41;69.90;93294.34;2057671;69;20177;-75
2022/09/06 06:36:12;;;;;;;7.22;4.60;;;;;;;18.48;68.77;93293.25;2057038;69;20176;-74
2022/09/06 06:38:40;;;;;;;5.78;4.25;;;;;;;18.54;67.87;93293.47;2056658;69;20756;-74
2022/09/06 06:41:07;;;;;;;7.25;4.35;;;;;;;18.46;71.55;93290.31;2056572;69;20284;-74
2022/09/06 06:43:36;;;;;;;6.38;4.15;;;;;;;18.44;71.89;93295.19;2056090;69;20221;-74
2022/09/06 06:46:07;;;;;;;4.07;3.67;;;;;;;18.47;68.06;93294.63;2053919;70;20541;-74
2022/09/06 06:48:33;;;;;;;4.93;4.03;;;;;;;18.53;70.51;93297.72;2053254;70;20153;-74
2022/09/06 06:50:59;;;;;;;7.00;3.45;;;;;;;18.58;67.82;93295.03;2053070;70;20152;-74
2022/09/06 06:53:24;;;;;;;6.40;4.75;;;;;;;18.52;70.47;93306.94;2053531;69;20150;-74
2022/09/06 06:55:50;;;;;;;5.07;4.20;;;;;;;18.57;69.43;93310.69;2051785;70;20162;-74
2022/09/06 06:58:16;;;;;;;12.32;6.75;;;;;;;18.57;69.61;93322.09;2053536;70;20271;-74
2022/09/06 07:00:43;;;;;;;48.25;6.68;;;;;;;18.40;72.45;93332.06;2054048;70;20534;-74
2022/09/06 07:03:10;;;;;;;5.25;4.00;;;;;;;18.52;69.83;93327.63;2050692;70;20591;-75
2022/09/06 07:05:36;;;;;;;6.20;3.78;;;;;;;18.52;70.66;93339.03;2053568;70;20237;-76
2022/09/06 07:08:04;;;;;;;6.43;4.53;;;;;;;18.54;70.88;93335.50;2053974;70;20309;-74
2022/09/06 07:10:30;;;;;;;5.47;4.38;;;;;;;18.51;71.01;93337.56;2053300;70;20170;-75
2022/09/06 07:12:56;;;;;;;6.75;4.13;;;;;;;18.55;70.89;93339.81;2053941;70;20590;-74
2022/09/06 07:15:22;;;;;;;4.70;4.05;;;;;;;18.56;71.35;93341.31;2052521;70;20154;-74
2022/09/06 07:17:47;;;;;;;4.25;3.85;;;;;;;18.58;71.71;93332.84;2051466;70;20253;-74
2022/09/06 07:20:13;;;;;;;5.13;3.90;;;;;;;18.57;72.46;93347.75;2053246;70;20149;-75
2022/09/06 07:22:39;;;;;;;4.47;3.90;;;;;;;18.67;71.42;93334.63;2052135;70;20150;-74
2022/09/06 07:25:06;;;;;;;4.25;3.85;;;;;;;18.67;70.77;93328.19;2050508;70;20151;-74
2022/09/06 07:27:32;;;;;;;5.63;4.45;;;;;;;18.66;72.26;93335.28;2052338;70;20150;-75
2022/09/06 07:29:57;;;;;;;7.00;4.03;;;;;;;18.69;70.86;93331.16;2050669;70;20621;-74
2022/09/06 07:32:23;;;;;;;6.53;3.65;;;;;;;18.67;71.83;93326.06;2052474;70;20151;-74
2022/09/06 07:34:49;;;;;;;5.55;4.53;;;;;;;18.61;71.38;93327.97;2050818;70;20602;-75
2022/09/06 07:37:14;;;;;;;4.25;3.83;;;;;;;18.65;72.69;93316.72;2053889;70;20198;-74
2022/09/06 07:39:40;;;;;;;6.55;4.03;;;;;;;18.67;73.08;93313.94;2053731;70;20495;-73
2022/09/06 07:42:06;;;;;;;5.32;4.07;;;;;;;18.67;72.45;93306.13;2052869;70;20163;-74
2022/09/06 07:44:32;;;;;;;4.38;3.42;;;;;;;18.73;71.12;93299.94;2050482;70;20166;-73
2022/09/06 07:47:01;;;;;;;5.93;4.22;;;;;;;18.81;70.40;93297.44;2053521;70;20153;-74
2022/09/06 07:49:28;;;;;;;5.28;3.60;;;;;;;18.91;71.16;93300.66;2053933;70;20634;-75
2022/09/06 07:51:53;;;;;;;7.35;3.60;;;;;;;18.98;69.79;93301.66;2053120;70;20533;-74
2022/09/06 07:54:20;;;;;;;5.90;4.90;;;;;;;18.13;74.85;93311.00;2050531;70;20598;-74
2022/09/06 07:56:46;;;;;;;5.22;4.07;;;;;;;18.83;67.64;93322.44;2052354;70;20690;-75
2022/09/06 07:59:12;;;;;;;7.72;5.80;;;;;;;18.91;71.51;93306.38;2053823;70;20156;-74
2022/09/06 08:01:39;;;;;;;6.95;5.50;;;;;;;18.92;69.11;93293.59;2053774;70;20673;-74
2022/09/06 08:04:09;;;;;;;5.22;4.25;;;;;;;19.02;71.54;93298.97;2053228;70;20243;-75
2022/09/06 08:06:37;;;;;;;6.03;4.00;;;;;;;18.88;69.05;93304.13;2053419;70;20262;-74
2022/09/06 08:09:06;;;;;;;4.93;3.60;;;;;;;18.91;69.35;93300.66;2053292;70;20150;-75
2022/09/06 08:11:33;;;;;;;8.02;4.15;;;;;;;19.14;69.66;93296.56;2053752;70;20602;-74
2022/09/06 08:14:01;;;;;;;4.63;3.58;;;;;;;19.40;67.79;93296.84;2049578;70;20143;-74
2022/09/06 08:16:28;;;;;;;12.90;8.32;;;;;;;19.40;66.38;93296.13;2050547;69;20229;-74
2022/09/06 08:18:56;;;;;;;7.80;4.90;;;;;;;19.23;68.34;93286.19;2050732;70;20169;-74
2022/09/06 08:21:24;;;;;;;7.10;4.68;;;;;;;19.44;65.94;93290.56;2053798;70;20269;-73
2022/09/06 08:23:56;;;;;;;8.00;4.18;;;;;;;19.54;70.09;93288.81;2052376;70;20173;-74
2022/09/06 08:26:24;;;;;;;9.13;4.93;;;;;;;19.52;68.33;93279.44;2053679;70;20585;-74
2022/09/06 08:28:59;;;;;;;9.40;6.20;;;;;;;19.67;67.44;93280.72;2053436;70;20177;-74
2022/09/06 08:31:26;;;;;;;8.48;6.30;;;;;;;19.89;66.71;93280.78;2050404;70;20236;-74
2022/09/06 08:33:52;;;;;;;6.70;5.00;;;;;;;20.02;68.28;93285.50;2052792;70;20158;-74
2022/09/06 08:36:19;;;;;;;6.03;4.78;;;;;;;19.66;68.69;93285.69;2053920;70;20166;-75
2022/09/06 08:38:45;;;;;;;4.97;4.28;;;;;;;20.13;66.67;93280.91;2053357;70;20259;-74
2022/09/06 08:41:50;;;;;;;6.53;4.07;;;;;;;20.35;65.39;93284.53;2053827;70;20189;-74
2022/09/06 08:44:23;;;;;;;7.05;5.63;;;;;;;20.27;66.83;93287.09;2052979;70;20169;-75
2022/09/06 08:46:52;;;;;;;5.97;5.32;;;;;;;19.97;67.88;93287.50;2053844;70;20225;-75
2022/09/06 08:49:18;;;;;;;7.53;4.65;;;;;;;19.85;67.86;93286.34;2053390;70;20157;-76
2022/09/06 08:52:18;;;;;;;6.38;4.72;;;;;;;20.13;66.09;93290.22;2053915;70;20137;-73
2022/09/06 08:55:12;;;;;;;5.53;4.65;;;;;;;20.36;63.89;93276.69;2047382;70;20471;-73
2022/09/06 08:57:50;;;;;;;7.07;5.20;;;;;;;20.36;64.65;93270.97;2052936;70;20174;-73
2022/09/06 09:00:18;;;;;;;5.07;4.45;;;;;;;19.93;65.39;93267.38;2053893;70;20177;-73
2022/09/06 09:02:52;;;;;;;8.45;4.80;;;;;;;20.35;63.38;93269.50;2053357;70;20505;-74
2022/09/06 09:05:22;;;;;;;6.63;4.80;;;;;;;20.45;62.49;93272.69;2051616;70;20179;-73
2022/09/06 09:08:15;;;;;;;5.88;3.90;;;;;;;20.70;61.90;93262.78;2050985;70;20269;-74
2022/09/06 09:10:48;;;;;;;6.30;4.13;;;;;;;20.77;62.96;93255.88;2052355;70;20629;-74
2022/09/06 09:13:37;;;;;;;4.93;3.72;;;;;;;20.85;62.73;93250.41;2050620;70;20134;-72
2022/09/06 09:16:05;;;;;;;5.38;3.63;;;;;;;20.77;62.82;93250.88;2053140;70;20156;-73
2022/09/06 09:18:36;;;;;;;6.03;3.58;;;;;;;20.85;63.31;93247.56;2053302;70;20190;-73
2022/09/06 09:21:03;;;;;;;4.95;4.03;;;;;;;20.90;62.45;93246.28;2052891;70;20152;-72
2022/09/06 09:23:29;;;;;;;6.32;4.35;;;;;;;20.83;62.83;93233.16;2053740;70;20142;-72
2022/09/06 09:26:01;;;;;;;5.30;4.22;;;;;;;20.98;62.59;93220.03;2052354;70;20237;-72
2022/09/06 09:28:27;;;;;;;7.28;5.85;;;;;;;21.00;61.03;93209.38;2049660;70;20162;-73
2022/09/06 09:30:55;;;;;;;10.48;5.95;;;;;;;21.12;61.72;93203.31;2050356;70;20158;-73
2022/09/06 09:33:24;;;;;;;5.55;4.25;;;;;;;21.47;60.53;93195.72;2050753;70;20182;-72
2022/09/06 09:35:51;;;;;;;9.75;4.70;;;;;;;21.64;63.16;93200.50;2053596;70;20177;-74
2022/09/06 09:38:25;;;;;;;6.22;4.68;;;;;;;21.75;62.39;93204.38;2053064;70;20165;-74
2022/09/06 09:40:53;;;;;;;7.43;4.80;;;;;;;21.82;60.97;93200.28;2052591;70;20637;-75
2022/09/06 09:43:20;;;;;;;4.72;4.22;;;;;;;22.14;60.15;93202.56;2054655;69;20188;-75
2022/09/06 09:46:14;;;;;;;4.10;3.70;;;;;;;22.38;59.12;93203.16;2056056;69;20165;-74
2022/09/06 09:48:45;;;;;;;7.40;4.43;;;;;;;22.47;59.73;93196.22;2052473;69;20168;-74
2022/09/06 09:51:19;;;;;;;7.30;4.65;;;;;;;22.67;58.26;93206.72;2055867;69;20211;-72
2022/09/06 09:53:52;;;;;;;6.13;4.13;;;;;;;22.88;57.96;93202.19;2056788;69;20160;-75
2022/09/06 09:56:28;;;;;;;4.93;4.05;;;;;;;23.28;56.69;93197.38;2056765;69;20321;-73
2022/09/06 09:58:57;;;;;;;4.13;3.72;;;;;;;23.94;56.28;93192.94;2056503;69;20180;-73
2022/09/06 10:01:32;;;;;;;4.18;3.78;;;;;;;24.58;54.46;93187.63;2052957;69;20633;-73
2022/09/06 10:04:14;;;;;;;5.57;3.65;;;;;;;24.65;51.64;93185.59;2053611;69;20189;-73
2022/09/06 10:06:39;;;;;;;4.35;3.25;;;;;;;25.06;51.13;93181.16;2054021;70;20154;-73
2022/09/06 10:09:21;;;;;;;8.32;3.60;;;;;;;25.27;50.11;93175.69;2055594;69;20225;-74
2022/09/06 10:11:55;;;;;;;3.33;3.00;;;;;;;25.88;48.57;93169.97;2056273;69;20169;-74
2022/09/06 10:14:43;;;;;;;3.42;3.08;;;;;;;26.59;46.49;93162.03;2056740;69;20575;-74
2022/09/06 10:17:31;;;;;;;3.40;3.10;;;;;;;26.32;45.01;93158.16;2057230;69;20152;-74
2022/09/06 10:20:11;;;;;;;2.72;2.53;;;;;;;27.39;44.14;93153.91;2053928;69;20151;-73
2022/09/06 10:22:56;;;;;;;3.42;2.78;;;;;;;27.50;43.06;93144.56;2055902;69;20165;-73
2022/09/06 10:25:44;;;;;;;4.28;2.90;;;;;;;27.72;40.47;93135.28;2056937;69;20577;-74
2022/09/06 10:28:30;;;;;;;3.90;2.70;;;;;;;28.69;40.17;93134.00;2053045;69;20288;-73
2022/09/06 10:31:05;;;;;;;3.92;2.60;;;;;;;28.29;41.01;93128.91;2056813;69;20179;-74
2022/09/06 10:33:49;;;;;;;3.63;2.40;;;;;;;28.50;39.35;93126.75;2057089;69;20258;-73
2022/09/06 10:36:21;;;;;;;3.35;2.40;;;;;;;29.02;39.77;93125.31;2056947;69;20157;-73
2022/09/06 10:38:52;;;;;;;3.85;2.42;;;;;;;29.85;37.71;93119.25;2057319;69;20137;-74
2022/09/06 10:41:45;;;;;;;2.73;2.17;;;;;;;30.96;37.47;93116.31;2056274;69;20253;-74
2022/09/06 10:44:11;;;;;;;;;;;;;;;30.53;35.12;93121.75;2054813;69;20270;-74
2022/09/06 10:46:39;;;;;;;3.42;2.70;;;;;;;30.69;35.08;93109.25;2053846;70;20164;-74
2022/09/06 10:49:11;;;;;;;4.60;2.42;;;;;;;30.64;34.21;93100.59;2050628;70;20126;-75
2022/09/06 10:51:49;;;;;;;;;;;;;;;30.97;35.06;93094.50;2053933;70;20149;-73
2022/09/06 10:54:23;;;;;;;4.50;2.10;;;;;;;32.18;34.15;93101.84;2050799;70;20494;-74
2022/09/06 10:56:58;;;;;;;2.15;1.95;;;;;;;32.33;33.92;93094.34;2054141;70;20170;-73
2022/09/06 10:59:38;;;;;;;3.65;2.10;;;;;;;32.72;33.08;93093.75;2053876;70;20586;-74
2022/09/06 11:02:19;;;;;;;2.38;1.83;;;;;;;33.57;32.00;93095.16;2051663;70;20229;-73
2022/09/06 11:04:47;;;;;;;4.07;1.95;;;;;;;33.50;32.30;93096.06;2052214;70;20257;-74
2022/09/06 11:07:40;;;;;;;2.63;1.70;;;;;;;31.44;32.15;93076.59;2053377;70;20162;-74
2022/09/06 11:10:44;;;;;;;3.50;1.77;;;;;;;30.98;31.81;93081.44;2052197;70;20146;-73
2022/09/06 11:13:16;;;;;;;4.25;1.95;;;;;;;30.87;33.47;93077.88;2051754;70;20565;-74
2022/09/06 11:15:50;;;;;;;2.92;2.05;;;;;;;31.03;34.63;93079.91;2045320;70;20193;-74
2022/09/06 11:18:22;;;;;;;2.85;2.13;;;;;;;30.04;35.05;93075.59;2053210;70;20184;-73
2022/09/06 11:20:50;;;;;;;4.37;2.43;;;;;;;31.63;34.37;93080.72;2053563;70;20154;-74
2022/09/06 11:23:34;;;;;;;2.42;2.03;;;;;;;32.22;32.78;93082.13;2052979;69;20180;-73
2022/09/06 11:26:22;;;;;;;3.30;2.20;;;;;;;32.75;30.98;93068.91;2052905;70;20172;-74
2022/09/06 11:28:53;;;;;;;3.55;2.58;;;;;;;34.89;29.27;93053.50;2053572;70;20165;-73
2022/09/06 11:31:30;;;;;;;2.40;2.00;;;;;;;35.62;28.02;93053.06;2053751;70;20236;-73
2022/09/06 11:34:09;;;;;;;3.63;2.50;;;;;;;32.80;31.18;93041.13;2053230;70;20157;-74
2022/09/06 11:36:47;;;;;;;4.55;2.33;;;;;;;32.78;33.02;93038.28;2050472;70;20526;-74
2022/09/06 11:39:22;;;;;;;3.63;2.30;;;;;;;32.50;32.64;93040.19;2049667;70;20697;-76
2022/09/06 11:41:48;;;;;;;2.55;2.20;;;;;;;30.81;33.46;93033.63;2050558;70;20162;-74
2022/09/06 11:44:49;;;;;;;4.95;2.03;;;;;;;31.69;34.16;93041.34;2054411;69;20226;-75
2022/09/06 11:47:34;;;;;;;3.17;2.30;;;;;;;31.06;33.94;93029.00;2057157;69;20652;-74
2022/09/06 11:50:23;;;;;;;3.55;2.30;;;;;;;29.80;35.42;93018.44;2056395;69;20142;-74